sensor_id;sensor_type;location;lat;lon;timestamp;temperature;humidity
25334;DHT22;24559;53.590;9.764;2023-04-24T00:02:03;15.10;99.90
25334;DHT22;24559;53.590;9.764;2023-04-24T00:04:29;15.10;99.90
25334;DHT22;24559;53.590;9.764;2023-04-24T00:06:55;15.10;99.90
25334;DHT22;24559;53.590;9.764;2023-04-24T00:09:22;15.00;99.90
25334;DHT22;24559;53.590;9.764;2023-04-24T00:11:48;15.00;99.90
25334;DHT22;24559;53.590;9.764;2023-04-24T00:14:14;15.00;99.90
25334;DHT22;24559;53.590;9.764;2023-04-24T00:16:39;14.90;99.90
25334;DHT22;24559;53.590;9.764;2023-04-24T00:19:05;14.90;99.90
25334;DHT22;24559;53.590;9.764;2023-04-24T00:21:32;14.90;99.90
25334;DHT22;24559;53.590;9.764;2023-04-24T00:23:58;14.90;99.90
25334;DHT22;24559;53.590;9.764;2023-04-24T00:26:23;14.90;99.90
25334;DHT22;24559;53.590;9.764;2023-04-24T00:28:49;14.80;99.90
25334;DHT22;24559;53.590;9.764;2023-04-24T00:31:15;14.80;99.90
25334;DHT22;24559;53.590;9.764;2023-04-24T00:33:40;14.80;99.90
25334;DHT22;24559;53.590;9.764;2023-04-24T00:36:07;14.80;99.90
25334;DHT22;24559;53.590;9.764;2023-04-24T00:38:33;14.80;99.90
25334;DHT22;24559;53.590;9.764;2023-04-24T00:40:58;14.80;99.90
25334;DHT22;24559;53.590;9.764;2023-04-24T00:43:24;14.80;99.90
25334;DHT22;24559;53.590;9.764;2023-04-24T00:45:50;14.70;99.90
25334;DHT22;24559;53.590;9.764;2023-04-24T00:48:16;14.80;99.90
25334;DHT22;24559;53.590;9.764;2023-04-24T00:50:42;14.80;99.90
25334;DHT22;24559;53.590;9.764;2023-04-24T00:53:08;14.80;99.90
25334;DHT22;24559;53.590;9.764;2023-04-24T00:55:33;14.70;99.90
25334;DHT22;24559;53.590;9.764;2023-04-24T00:57:59;14.60;99.90
25334;DHT22;24559;53.590;9.764;2023-04-24T01:00:25;14.50;99.90
25334;DHT22;24559;53.590;9.764;2023-04-24T01:02:51;14.50;99.90
25334;DHT22;24559;53.590;9.764;2023-04-24T01:05:17;14.30;99.90
25334;DHT22;24559;53.590;9.764;2023-04-24T01:07:43;14.30;99.90
25334;DHT22;24559;53.590;9.764;2023-04-24T01:10:11;14.30;99.90
25334;DHT22;24559;53.590;9.764;2023-04-24T01:12:37;14.30;99.90
25334;DHT22;24559;53.590;9.764;2023-04-24T01:15:04;14.20;99.90
25334;DHT22;24559;53.590;9.764;2023-04-24T01:17:31;14.20;99.90
25334;DHT22;24559;53.590;9.764;2023-04-24T01:19:56;14.20;99.90
25334;DHT22;24559;53.590;9.764;2023-04-24T01:22:23;14.20;99.90
25334;DHT22;24559;53.590;9.764;2023-04-24T01:24:49;14.10;99.90
25334;DHT22;24559;53.590;9.764;2023-04-24T01:27:15;14.10;99.90
25334;DHT22;24559;53.590;9.764;2023-04-24T01:29:41;14.10;99.90
25334;DHT22;24559;53.590;9.764;2023-04-24T01:32:09;14.00;99.90
25334;DHT22;24559;53.590;9.764;2023-04-24T01:34:35;14.00;99.90
25334;DHT22;24559;53.590;9.764;2023-04-24T01:37:01;14.00;99.90
25334;DHT22;24559;53.590;9.764;2023-04-24T01:39:26;14.00;99.90
25334;DHT22;24559;53.590;9.764;2023-04-24T01:41:54;14.00;99.90
25334;DHT22;24559;53.590;9.764;2023-04-24T01:44:20;14.00;99.90
25334;DHT22;24559;53.590;9.764;2023-04-24T01:46:47;14.00;99.90
25334;DHT22;24559;53.590;9.764;2023-04-24T01:49:12;14.00;99.90
25334;DHT22;24559;53.590;9.764;2023-04-24T01:51:38;14.00;99.90
25334;DHT22;24559;53.590;9.764;2023-04-24T01:54:04;14.00;99.90
25334;DHT22;24559;53.590;9.764;2023-04-24T01:56:34;14.00;99.90
25334;DHT22;24559;53.590;9.764;2023-04-24T01:59:03;14.00;99.90
25334;DHT22;24559;53.590;9.764;2023-04-24T02:01:33;14.00;99.90
25334;DHT22;24559;53.590;9.764;2023-04-24T02:03:59;14.00;99.90
25334;DHT22;24559;53.590;9.764;2023-04-24T02:06:24;13.80;99.90
25334;DHT22;24559;53.590;9.764;2023-04-24T02:08:52;13.80;99.90
25334;DHT22;24559;53.590;9.764;2023-04-24T02:11:18;13.60;99.90
25334;DHT22;24559;53.590;9.764;2023-04-24T02:13:44;13.60;99.90
25334;DHT22;24559;53.590;9.764;2023-04-24T02:16:10;13.70;99.90
25334;DHT22;24559;53.590;9.764;2023-04-24T02:18:35;13.70;99.90
25334;DHT22;24559;53.590;9.764;2023-04-24T02:21:01;13.60;99.90
25334;DHT22;24559;53.590;9.764;2023-04-24T02:23:27;13.60;99.90
25334;DHT22;24559;53.590;9.764;2023-04-24T02:25:53;13.60;99.90
25334;DHT22;24559;53.590;9.764;2023-04-24T02:28:18;13.50;99.90
25334;DHT22;24559;53.590;9.764;2023-04-24T02:30:44;13.50;99.90
25334;DHT22;24559;53.590;9.764;2023-04-24T02:33:11;13.50;99.90
25334;DHT22;24559;53.590;9.764;2023-04-24T02:35:36;13.50;99.90
25334;DHT22;24559;53.590;9.764;2023-04-24T02:38:02;13.40;99.90
25334;DHT22;24559;53.590;9.764;2023-04-24T02:40:28;13.40;99.90
25334;DHT22;24559;53.590;9.764;2023-04-24T02:42:54;13.40;99.90
25334;DHT22;24559;53.590;9.764;2023-04-24T02:45:20;13.30;99.90
25334;DHT22;24559;53.590;9.764;2023-04-24T02:47:45;13.30;99.90
25334;DHT22;24559;53.590;9.764;2023-04-24T02:50:11;13.30;99.90
25334;DHT22;24559;53.590;9.764;2023-04-24T02:52:37;13.30;99.90
25334;DHT22;24559;53.590;9.764;2023-04-24T02:55:02;13.30;99.90
25334;DHT22;24559;53.590;9.764;2023-04-24T02:57:28;13.20;99.90
25334;DHT22;24559;53.590;9.764;2023-04-24T02:59:54;13.20;99.90
25334;DHT22;24559;53.590;9.764;2023-04-24T03:02:20;13.10;99.90
25334;DHT22;24559;53.590;9.764;2023-04-24T03:04:46;13.20;99.90
25334;DHT22;24559;53.590;9.764;2023-04-24T03:07:13;13.10;99.90
25334;DHT22;24559;53.590;9.764;2023-04-24T03:09:40;13.10;99.90
25334;DHT22;24559;53.590;9.764;2023-04-24T03:12:06;13.00;99.90
25334;DHT22;24559;53.590;9.764;2023-04-24T03:14:31;13.00;99.90
25334;DHT22;24559;53.590;9.764;2023-04-24T03:16:57;13.10;99.90
25334;DHT22;24559;53.590;9.764;2023-04-24T03:19:23;12.90;99.90
25334;DHT22;24559;53.590;9.764;2023-04-24T03:22:02;12.20;99.90
25334;DHT22;24559;53.590;9.764;2023-04-24T03:24:29;12.90;99.90
25334;DHT22;24559;53.590;9.764;2023-04-24T03:26:56;12.90;99.90
25334;DHT22;24559;53.590;9.764;2023-04-24T03:29:41;12.90;99.90
25334;DHT22;24559;53.590;9.764;2023-04-24T03:32:06;12.90;99.90
25334;DHT22;24559;53.590;9.764;2023-04-24T03:34:33;13.60;99.90
25334;DHT22;24559;53.590;9.764;2023-04-24T03:36:59;12.90;99.90
25334;DHT22;24559;53.590;9.764;2023-04-24T03:39:25;12.80;99.90
25334;DHT22;24559;53.590;9.764;2023-04-24T03:41:54;12.80;99.90
25334;DHT22;24559;53.590;9.764;2023-04-24T03:44:25;12.70;99.90
25334;DHT22;24559;53.590;9.764;2023-04-24T03:46:50;12.60;99.90
25334;DHT22;24559;53.590;9.764;2023-04-24T03:49:19;12.60;99.90
25334;DHT22;24559;53.590;9.764;2023-04-24T03:51:46;12.60;99.90
25334;DHT22;24559;53.590;9.764;2023-04-24T03:54:30;12.70;99.90
25334;DHT22;24559;53.590;9.764;2023-04-24T03:56:56;12.60;99.90
25334;DHT22;24559;53.590;9.764;2023-04-24T03:59:24;12.60;99.90
25334;DHT22;24559;53.590;9.764;2023-04-24T04:02:04;12.70;99.90
25334;DHT22;24559;53.590;9.764;2023-04-24T04:04:30;12.60;99.90
25334;DHT22;24559;53.590;9.764;2023-04-24T04:06:56;12.50;99.90
25334;DHT22;24559;53.590;9.764;2023-04-24T04:09:23;12.50;99.90
25334;DHT22;24559;53.590;9.764;2023-04-24T04:11:48;12.50;99.90
25334;DHT22;24559;53.590;9.764;2023-04-24T04:14:15;12.60;99.90
25334;DHT22;24559;53.590;9.764;2023-04-24T04:16:44;12.60;99.90
25334;DHT22;24559;53.590;9.764;2023-04-24T04:19:11;12.60;99.90
25334;DHT22;24559;53.590;9.764;2023-04-24T04:21:37;12.60;99.90
25334;DHT22;24559;53.590;9.764;2023-04-24T04:24:11;12.40;99.90
25334;DHT22;24559;53.590;9.764;2023-04-24T04:26:41;12.50;99.90
25334;DHT22;24559;53.590;9.764;2023-04-24T04:29:12;12.50;99.90
25334;DHT22;24559;53.590;9.764;2023-04-24T04:31:42;12.50;99.90
25334;DHT22;24559;53.590;9.764;2023-04-24T04:34:11;12.50;99.90
25334;DHT22;24559;53.590;9.764;2023-04-24T04:36:39;12.50;99.90
25334;DHT22;24559;53.590;9.764;2023-04-24T04:39:24;12.50;99.90
25334;DHT22;24559;53.590;9.764;2023-04-24T04:41:56;12.50;99.90
25334;DHT22;24559;53.590;9.764;2023-04-24T04:44:26;12.60;99.90
25334;DHT22;24559;53.590;9.764;2023-04-24T04:46:53;12.60;99.90
25334;DHT22;24559;53.590;9.764;2023-04-24T04:49:26;12.70;99.90
25334;DHT22;24559;53.590;9.764;2023-04-24T04:51:54;12.80;99.90
25334;DHT22;24559;53.590;9.764;2023-04-24T04:54:21;12.90;99.90
25334;DHT22;24559;53.590;9.764;2023-04-24T04:56:49;12.80;99.90
25334;DHT22;24559;53.590;9.764;2023-04-24T04:59:15;12.90;99.90
25334;DHT22;24559;53.590;9.764;2023-04-24T05:01:41;12.90;99.90
25334;DHT22;24559;53.590;9.764;2023-04-24T05:04:09;12.90;99.90
25334;DHT22;24559;53.590;9.764;2023-04-24T05:06:36;12.90;99.90
25334;DHT22;24559;53.590;9.764;2023-04-24T05:09:04;12.90;99.90
25334;DHT22;24559;53.590;9.764;2023-04-24T05:11:39;12.90;99.90
25334;DHT22;24559;53.590;9.764;2023-04-24T05:14:05;13.00;99.90
25334;DHT22;24559;53.590;9.764;2023-04-24T05:16:34;13.00;99.90
25334;DHT22;24559;53.590;9.764;2023-04-24T05:19:03;13.10;99.90
25334;DHT22;24559;53.590;9.764;2023-04-24T05:21:33;13.10;99.90
25334;DHT22;24559;53.590;9.764;2023-04-24T05:23:59;13.10;99.90
25334;DHT22;24559;53.590;9.764;2023-04-24T05:26:44;13.30;99.90
25334;DHT22;24559;53.590;9.764;2023-04-24T05:29:11;13.40;99.90
25334;DHT22;24559;53.590;9.764;2023-04-24T05:31:37;13.40;99.90
25334;DHT22;24559;53.590;9.764;2023-04-24T05:34:04;13.60;99.90
25334;DHT22;24559;53.590;9.764;2023-04-24T05:36:31;13.70;99.90
25334;DHT22;24559;53.590;9.764;2023-04-24T05:38:57;13.70;99.90
25334;DHT22;24559;53.590;9.764;2023-04-24T05:41:23;13.80;99.90
25334;DHT22;24559;53.590;9.764;2023-04-24T05:43:49;13.80;99.90
25334;DHT22;24559;53.590;9.764;2023-04-24T05:46:14;13.90;99.90
25334;DHT22;24559;53.590;9.764;2023-04-24T05:48:40;14.10;99.90
25334;DHT22;24559;53.590;9.764;2023-04-24T05:51:06;14.20;99.90
25334;DHT22;24559;53.590;9.764;2023-04-24T05:53:32;14.20;99.90
25334;DHT22;24559;53.590;9.764;2023-04-24T05:55:57;14.20;99.90
25334;DHT22;24559;53.590;9.764;2023-04-24T05:58:24;14.30;99.90
25334;DHT22;24559;53.590;9.764;2023-04-24T06:00:50;14.50;99.90
25334;DHT22;24559;53.590;9.764;2023-04-24T06:03:17;14.50;99.90
25334;DHT22;24559;53.590;9.764;2023-04-24T06:05:43;14.70;99.90
25334;DHT22;24559;53.590;9.764;2023-04-24T06:08:09;14.90;99.90
25334;DHT22;24559;53.590;9.764;2023-04-24T06:10:38;15.20;99.90
25334;DHT22;24559;53.590;9.764;2023-04-24T06:13:05;15.40;99.90
25334;DHT22;24559;53.590;9.764;2023-04-24T06:15:34;15.50;99.90
25334;DHT22;24559;53.590;9.764;2023-04-24T06:18:08;15.80;99.90
25334;DHT22;24559;53.590;9.764;2023-04-24T06:20:37;16.00;99.90
25334;DHT22;24559;53.590;9.764;2023-04-24T06:23:02;16.10;99.90
25334;DHT22;24559;53.590;9.764;2023-04-24T06:25:28;16.30;99.90
25334;DHT22;24559;53.590;9.764;2023-04-24T06:27:54;16.50;99.90
25334;DHT22;24559;53.590;9.764;2023-04-24T06:30:20;16.60;99.90
25334;DHT22;24559;53.590;9.764;2023-04-24T06:32:49;16.70;99.90
25334;DHT22;24559;53.590;9.764;2023-04-24T06:35:17;16.80;99.90
25334;DHT22;24559;53.590;9.764;2023-04-24T06:37:43;17.10;99.90
25334;DHT22;24559;53.590;9.764;2023-04-24T06:40:09;17.30;99.90
25334;DHT22;24559;53.590;9.764;2023-04-24T06:42:35;17.50;99.90
25334;DHT22;24559;53.590;9.764;2023-04-24T06:45:03;17.50;99.90
25334;DHT22;24559;53.590;9.764;2023-04-24T06:47:29;17.40;99.90
25334;DHT22;24559;53.590;9.764;2023-04-24T06:49:55;17.40;99.90
25334;DHT22;24559;53.590;9.764;2023-04-24T06:52:21;17.70;99.90
25334;DHT22;24559;53.590;9.764;2023-04-24T06:54:46;17.10;99.90
25334;DHT22;24559;53.590;9.764;2023-04-24T06:57:12;17.10;99.90
25334;DHT22;24559;53.590;9.764;2023-04-24T06:59:38;17.30;99.90
25334;DHT22;24559;53.590;9.764;2023-04-24T07:02:03;17.40;99.90
25334;DHT22;24559;53.590;9.764;2023-04-24T07:04:29;17.30;99.90
25334;DHT22;24559;53.590;9.764;2023-04-24T07:06:55;17.30;99.90
25334;DHT22;24559;53.590;9.764;2023-04-24T07:09:23;17.20;99.90
25334;DHT22;24559;53.590;9.764;2023-04-24T07:11:49;17.10;99.90
25334;DHT22;24559;53.590;9.764;2023-04-24T07:14:15;16.80;99.90
25334;DHT22;24559;53.590;9.764;2023-04-24T07:16:41;16.70;99.90
25334;DHT22;24559;53.590;9.764;2023-04-24T07:19:07;16.80;99.90
25334;DHT22;24559;53.590;9.764;2023-04-24T07:21:33;16.90;99.90
25334;DHT22;24559;53.590;9.764;2023-04-24T07:23:59;17.00;99.90
25334;DHT22;24559;53.590;9.764;2023-04-24T07:26:25;17.20;99.90
25334;DHT22;24559;53.590;9.764;2023-04-24T07:28:51;17.40;99.90
25334;DHT22;24559;53.590;9.764;2023-04-24T07:31:16;17.50;99.90
25334;DHT22;24559;53.590;9.764;2023-04-24T07:33:42;18.20;99.90
25334;DHT22;24559;53.590;9.764;2023-04-24T07:36:08;17.50;99.90
25334;DHT22;24559;53.590;9.764;2023-04-24T07:38:34;17.90;99.90
25334;DHT22;24559;53.590;9.764;2023-04-24T07:41:00;17.90;99.90
25334;DHT22;24559;53.590;9.764;2023-04-24T07:43:25;17.70;99.90
25334;DHT22;24559;53.590;9.764;2023-04-24T07:45:51;17.60;99.90
25334;DHT22;24559;53.590;9.764;2023-04-24T07:48:17;17.40;99.90
25334;DHT22;24559;53.590;9.764;2023-04-24T07:50:44;17.30;99.90
25334;DHT22;24559;53.590;9.764;2023-04-24T07:53:10;17.40;99.90
25334;DHT22;24559;53.590;9.764;2023-04-24T07:55:35;17.30;99.90
25334;DHT22;24559;53.590;9.764;2023-04-24T07:58:01;17.10;99.90
25334;DHT22;24559;53.590;9.764;2023-04-24T08:00:27;17.10;99.90
25334;DHT22;24559;53.590;9.764;2023-04-24T08:02:53;17.00;99.90
25334;DHT22;24559;53.590;9.764;2023-04-24T08:05:18;16.90;99.90
25334;DHT22;24559;53.590;9.764;2023-04-24T08:07:45;16.80;99.90
25334;DHT22;24559;53.590;9.764;2023-04-24T08:10:11;16.60;99.90
25334;DHT22;24559;53.590;9.764;2023-04-24T08:12:37;16.60;99.90
25334;DHT22;24559;53.590;9.764;2023-04-24T08:15:04;16.50;99.90
25334;DHT22;24559;53.590;9.764;2023-04-24T08:17:30;16.40;99.90
25334;DHT22;24559;53.590;9.764;2023-04-24T08:19:55;16.40;99.90
25334;DHT22;24559;53.590;9.764;2023-04-24T08:22:27;16.40;99.90
25334;DHT22;24559;53.590;9.764;2023-04-24T08:24:53;16.40;99.90
25334;DHT22;24559;53.590;9.764;2023-04-24T08:27:18;16.30;99.90
25334;DHT22;24559;53.590;9.764;2023-04-24T08:29:44;16.50;99.90
25334;DHT22;24559;53.590;9.764;2023-04-24T08:32:10;16.40;99.90
25334;DHT22;24559;53.590;9.764;2023-04-24T08:34:36;16.30;99.90
25334;DHT22;24559;53.590;9.764;2023-04-24T08:37:02;16.40;99.90
25334;DHT22;24559;53.590;9.764;2023-04-24T08:39:27;16.30;99.90
25334;DHT22;24559;53.590;9.764;2023-04-24T08:41:54;16.40;99.90
25334;DHT22;24559;53.590;9.764;2023-04-24T08:44:20;16.30;99.90
25334;DHT22;24559;53.590;9.764;2023-04-24T08:46:46;16.20;99.90
25334;DHT22;24559;53.590;9.764;2023-04-24T08:49:13;15.90;99.90
25334;DHT22;24559;53.590;9.764;2023-04-24T08:51:39;16.00;99.90
25334;DHT22;24559;53.590;9.764;2023-04-24T08:54:05;16.00;99.90
25334;DHT22;24559;53.590;9.764;2023-04-24T08:56:33;16.10;99.90
25334;DHT22;24559;53.590;9.764;2023-04-24T08:58:59;16.10;99.90
25334;DHT22;24559;53.590;9.764;2023-04-24T09:01:24;16.10;99.90
25334;DHT22;24559;53.590;9.764;2023-04-24T09:03:50;16.20;99.90
25334;DHT22;24559;53.590;9.764;2023-04-24T09:06:17;16.30;99.90
25334;DHT22;24559;53.590;9.764;2023-04-24T09:08:43;16.90;99.90
25334;DHT22;24559;53.590;9.764;2023-04-24T09:11:09;16.30;99.90
25334;DHT22;24559;53.590;9.764;2023-04-24T09:13:36;16.30;99.90
25334;DHT22;24559;53.590;9.764;2023-04-24T09:16:02;16.30;99.90
25334;DHT22;24559;53.590;9.764;2023-04-24T09:18:27;16.20;99.90
25334;DHT22;24559;53.590;9.764;2023-04-24T09:20:57;16.20;99.90
25334;DHT22;24559;53.590;9.764;2023-04-24T09:23:22;16.30;99.90
25334;DHT22;24559;53.590;9.764;2023-04-24T09:25:48;16.60;99.90
25334;DHT22;24559;53.590;9.764;2023-04-24T09:28:19;17.40;99.90
25334;DHT22;24559;53.590;9.764;2023-04-24T09:31:01;17.20;99.90
25334;DHT22;24559;53.590;9.764;2023-04-24T09:33:27;17.40;99.90
25334;DHT22;24559;53.590;9.764;2023-04-24T09:35:52;17.50;99.90
25334;DHT22;24559;53.590;9.764;2023-04-24T09:38:18;17.10;99.90
25334;DHT22;24559;53.590;9.764;2023-04-24T09:40:45;17.10;99.90
25334;DHT22;24559;53.590;9.764;2023-04-24T09:43:11;17.00;99.90
25334;DHT22;24559;53.590;9.764;2023-04-24T09:45:38;16.90;99.90
25334;DHT22;24559;53.590;9.764;2023-04-24T09:48:04;16.90;99.90
25334;DHT22;24559;53.590;9.764;2023-04-24T09:50:31;16.80;99.90
25334;DHT22;24559;53.590;9.764;2023-04-24T09:52:59;16.80;99.90
25334;DHT22;24559;53.590;9.764;2023-04-24T09:55:24;16.70;99.90
25334;DHT22;24559;53.590;9.764;2023-04-24T09:58:00;16.70;99.90
25334;DHT22;24559;53.590;9.764;2023-04-24T10:00:30;16.50;99.90
25334;DHT22;24559;53.590;9.764;2023-04-24T10:03:00;16.60;99.90
25334;DHT22;24559;53.590;9.764;2023-04-24T10:08:02;16.70;99.90
25334;DHT22;24559;53.590;9.764;2023-04-24T10:10:28;16.70;99.90
25334;DHT22;24559;53.590;9.764;2023-04-24T10:12:54;16.90;99.90
25334;DHT22;24559;53.590;9.764;2023-04-24T10:15:20;16.90;99.90
25334;DHT22;24559;53.590;9.764;2023-04-24T10:17:50;16.80;99.90
25334;DHT22;24559;53.590;9.764;2023-04-24T10:20:22;16.70;99.90
25334;DHT22;24559;53.590;9.764;2023-04-24T10:22:53;16.70;99.90
25334;DHT22;24559;53.590;9.764;2023-04-24T10:25:20;16.80;99.90
25334;DHT22;24559;53.590;9.764;2023-04-24T10:27:47;16.90;99.90
25334;DHT22;24559;53.590;9.764;2023-04-24T10:30:13;17.00;99.90
25334;DHT22;24559;53.590;9.764;2023-04-24T10:32:39;17.20;99.90
25334;DHT22;24559;53.590;9.764;2023-04-24T10:35:06;17.10;99.90
25334;DHT22;24559;53.590;9.764;2023-04-24T10:37:37;17.20;99.90
25334;DHT22;24559;53.590;9.764;2023-04-24T10:40:03;17.10;99.90
25334;DHT22;24559;53.590;9.764;2023-04-24T10:42:29;17.10;99.90
25334;DHT22;24559;53.590;9.764;2023-04-24T10:44:55;17.30;99.90
25334;DHT22;24559;53.590;9.764;2023-04-24T10:47:23;17.20;99.90
25334;DHT22;24559;53.590;9.764;2023-04-24T10:49:50;17.10;99.90
25334;DHT22;24559;53.590;9.764;2023-04-24T10:52:16;16.40;99.90
25334;DHT22;24559;53.590;9.764;2023-04-24T10:54:43;16.90;99.90
25334;DHT22;24559;53.590;9.764;2023-04-24T10:59:45;16.80;99.90
25334;DHT22;24559;53.590;9.764;2023-04-24T11:02:10;16.80;99.90
25334;DHT22;24559;53.590;9.764;2023-04-24T11:04:36;16.70;99.90
25334;DHT22;24559;53.590;9.764;2023-04-24T11:07:02;16.60;99.90
25334;DHT22;24559;53.590;9.764;2023-04-24T11:09:28;16.30;99.90
25334;DHT22;24559;53.590;9.764;2023-04-24T11:12:13;16.30;99.90
25334;DHT22;24559;53.590;9.764;2023-04-24T11:17:30;16.40;99.90
25334;DHT22;24559;53.590;9.764;2023-04-24T11:20:18;16.50;99.90
25334;DHT22;24559;53.590;9.764;2023-04-24T11:22:43;16.50;99.90
25334;DHT22;24559;53.590;9.764;2023-04-24T11:25:09;16.50;99.90
25334;DHT22;24559;53.590;9.764;2023-04-24T11:30:06;16.40;99.90
25334;DHT22;24559;53.590;9.764;2023-04-24T11:34:59;16.50;99.90
25334;DHT22;24559;53.590;9.764;2023-04-24T11:37:26;16.50;99.90
25334;DHT22;24559;53.590;9.764;2023-04-24T11:39:53;16.40;99.90
25334;DHT22;24559;53.590;9.764;2023-04-24T11:42:20;16.30;99.90
25334;DHT22;24559;53.590;9.764;2023-04-24T11:44:46;16.40;99.90
25334;DHT22;24559;53.590;9.764;2023-04-24T11:47:12;17.10;99.90
25334;DHT22;24559;53.590;9.764;2023-04-24T11:49:38;16.80;99.90
25334;DHT22;24559;53.590;9.764;2023-04-24T11:52:04;16.90;99.90
25334;DHT22;24559;53.590;9.764;2023-04-24T11:54:30;17.00;99.90
25334;DHT22;24559;53.590;9.764;2023-04-24T11:56:56;16.80;99.90
25334;DHT22;24559;53.590;9.764;2023-04-24T11:59:22;16.80;99.90
25334;DHT22;24559;53.590;9.764;2023-04-24T12:01:48;16.80;99.90
25334;DHT22;24559;53.590;9.764;2023-04-24T12:04:14;16.70;99.90
25334;DHT22;24559;53.590;9.764;2023-04-24T12:07:02;16.80;99.90
25334;DHT22;24559;53.590;9.764;2023-04-24T12:09:26;16.90;99.90
25334;DHT22;24559;53.590;9.764;2023-04-24T12:11:53;17.00;99.90
25334;DHT22;24559;53.590;9.764;2023-04-24T12:14:20;17.10;99.90
25334;DHT22;24559;53.590;9.764;2023-04-24T12:16:47;17.10;99.90
25334;DHT22;24559;53.590;9.764;2023-04-24T12:19:17;17.20;99.90
25334;DHT22;24559;53.590;9.764;2023-04-24T12:21:43;17.20;99.90
25334;DHT22;24559;53.590;9.764;2023-04-24T12:24:09;17.20;99.90
25334;DHT22;24559;53.590;9.764;2023-04-24T12:26:34;17.30;99.90
25334;DHT22;24559;53.590;9.764;2023-04-24T12:29:01;17.30;99.90
25334;DHT22;24559;53.590;9.764;2023-04-24T12:31:26;17.30;99.90
25334;DHT22;24559;53.590;9.764;2023-04-24T12:33:55;17.00;99.90
25334;DHT22;24559;53.590;9.764;2023-04-24T12:36:21;16.60;99.90
25334;DHT22;24559;53.590;9.764;2023-04-24T12:38:47;16.60;99.90
25334;DHT22;24559;53.590;9.764;2023-04-24T12:41:18;16.60;99.90
25334;DHT22;24559;53.590;9.764;2023-04-24T12:43:51;16.40;99.90
25334;DHT22;24559;53.590;9.764;2023-04-24T12:46:17;16.40;99.90
25334;DHT22;24559;53.590;9.764;2023-04-24T12:48:43;16.40;99.90
25334;DHT22;24559;53.590;9.764;2023-04-24T12:51:09;16.30;99.90
25334;DHT22;24559;53.590;9.764;2023-04-24T12:53:34;16.30;99.90
25334;DHT22;24559;53.590;9.764;2023-04-24T12:56:01;16.20;99.90
25334;DHT22;24559;53.590;9.764;2023-04-24T12:58:26;16.00;99.90
25334;DHT22;24559;53.590;9.764;2023-04-24T13:00:52;15.90;99.90
25334;DHT22;24559;53.590;9.764;2023-04-24T13:03:18;15.60;99.90
25334;DHT22;24559;53.590;9.764;2023-04-24T13:05:43;15.20;99.90
25334;DHT22;24559;53.590;9.764;2023-04-24T13:08:09;15.00;99.90
25334;DHT22;24559;53.590;9.764;2023-04-24T13:10:38;15.00;99.90
25334;DHT22;24559;53.590;9.764;2023-04-24T13:13:04;14.80;99.90
25334;DHT22;24559;53.590;9.764;2023-04-24T13:15:29;14.80;99.90
25334;DHT22;24559;53.590;9.764;2023-04-24T13:17:55;14.80;99.90
25334;DHT22;24559;53.590;9.764;2023-04-24T13:20:21;14.80;99.90
25334;DHT22;24559;53.590;9.764;2023-04-24T13:22:46;14.90;99.90
25334;DHT22;24559;53.590;9.764;2023-04-24T13:25:12;15.00;99.90
25334;DHT22;24559;53.590;9.764;2023-04-24T13:27:38;15.10;99.90
25334;DHT22;24559;53.590;9.764;2023-04-24T13:30:04;15.20;99.90
25334;DHT22;24559;53.590;9.764;2023-04-24T13:32:30;15.20;99.90
25334;DHT22;24559;53.590;9.764;2023-04-24T13:34:56;15.20;99.90
25334;DHT22;24559;53.590;9.764;2023-04-24T13:37:22;15.10;99.90
25334;DHT22;24559;53.590;9.764;2023-04-24T13:39:48;15.10;99.90
25334;DHT22;24559;53.590;9.764;2023-04-24T13:42:14;15.20;99.90
25334;DHT22;24559;53.590;9.764;2023-04-24T13:44:39;15.30;99.90
25334;DHT22;24559;53.590;9.764;2023-04-24T13:47:06;15.20;99.90
25334;DHT22;24559;53.590;9.764;2023-04-24T13:49:32;15.30;99.90
25334;DHT22;24559;53.590;9.764;2023-04-24T13:51:57;15.30;99.90
25334;DHT22;24559;53.590;9.764;2023-04-24T13:54:23;15.30;99.90
25334;DHT22;24559;53.590;9.764;2023-04-24T13:56:51;15.20;99.90
25334;DHT22;24559;53.590;9.764;2023-04-24T13:59:17;15.80;99.90
25334;DHT22;24559;53.590;9.764;2023-04-24T14:01:43;15.70;99.90
25334;DHT22;24559;53.590;9.764;2023-04-24T14:04:10;15.30;99.90
25334;DHT22;24559;53.590;9.764;2023-04-24T14:06:36;15.80;99.90
25334;DHT22;24559;53.590;9.764;2023-04-24T14:09:02;15.50;99.90
25334;DHT22;24559;53.590;9.764;2023-04-24T14:11:28;15.50;99.90
25334;DHT22;24559;53.590;9.764;2023-04-24T14:13:54;15.30;99.90
25334;DHT22;24559;53.590;9.764;2023-04-24T14:16:22;15.30;99.90
25334;DHT22;24559;53.590;9.764;2023-04-24T14:18:47;15.00;99.90
25334;DHT22;24559;53.590;9.764;2023-04-24T14:21:13;14.90;99.90
25334;DHT22;24559;53.590;9.764;2023-04-24T14:23:39;14.70;99.90
25334;DHT22;24559;53.590;9.764;2023-04-24T14:26:04;14.60;99.90
25334;DHT22;24559;53.590;9.764;2023-04-24T14:28:30;14.50;99.90
25334;DHT22;24559;53.590;9.764;2023-04-24T14:30:56;14.50;99.90
25334;DHT22;24559;53.590;9.764;2023-04-24T14:33:22;14.50;99.90
25334;DHT22;24559;53.590;9.764;2023-04-24T14:35:47;14.60;99.90
25334;DHT22;24559;53.590;9.764;2023-04-24T14:38:13;14.50;99.90
25334;DHT22;24559;53.590;9.764;2023-04-24T14:40:39;14.50;99.90
25334;DHT22;24559;53.590;9.764;2023-04-24T14:43:06;14.40;99.90
25334;DHT22;24559;53.590;9.764;2023-04-24T14:45:32;14.40;99.90
25334;DHT22;24559;53.590;9.764;2023-04-24T14:47:58;14.60;99.90
25334;DHT22;24559;53.590;9.764;2023-04-24T14:50:23;14.40;99.90
25334;DHT22;24559;53.590;9.764;2023-04-24T14:52:53;14.30;99.90
25334;DHT22;24559;53.590;9.764;2023-04-24T14:55:19;14.30;99.90
25334;DHT22;24559;53.590;9.764;2023-04-24T14:57:44;14.20;99.90
25334;DHT22;24559;53.590;9.764;2023-04-24T15:00:10;14.10;99.90
25334;DHT22;24559;53.590;9.764;2023-04-24T15:02:36;13.90;99.90
25334;DHT22;24559;53.590;9.764;2023-04-24T15:05:05;13.70;99.90
25334;DHT22;24559;53.590;9.764;2023-04-24T15:07:31;13.70;99.90
25334;DHT22;24559;53.590;9.764;2023-04-24T15:09:58;13.50;99.90
25334;DHT22;24559;53.590;9.764;2023-04-24T15:12:24;13.30;99.90
25334;DHT22;24559;53.590;9.764;2023-04-24T15:14:50;13.30;99.90
25334;DHT22;24559;53.590;9.764;2023-04-24T15:17:15;13.20;99.90
25334;DHT22;24559;53.590;9.764;2023-04-24T15:19:41;13.00;99.90
25334;DHT22;24559;53.590;9.764;2023-04-24T15:22:07;13.00;99.90
25334;DHT22;24559;53.590;9.764;2023-04-24T15:24:33;13.00;99.90
25334;DHT22;24559;53.590;9.764;2023-04-24T15:26:59;13.00;99.90
25334;DHT22;24559;53.590;9.764;2023-04-24T15:29:25;12.90;99.90
25334;DHT22;24559;53.590;9.764;2023-04-24T15:31:52;13.00;99.90
25334;DHT22;24559;53.590;9.764;2023-04-24T15:34:18;12.90;99.90
25334;DHT22;24559;53.590;9.764;2023-04-24T15:36:43;12.90;99.90
25334;DHT22;24559;53.590;9.764;2023-04-24T15:39:09;12.80;99.90
25334;DHT22;24559;53.590;9.764;2023-04-24T15:41:35;12.70;99.90